createdAt,value
2018-06-21T00:00:13.708Z,5.90
2018-06-21T00:02:42.441Z,6.40
2018-06-21T00:05:11.307Z,6.20
2018-06-21T00:07:39.841Z,6.77
2018-06-21T00:10:08.493Z,6.13
2018-06-21T00:12:37.475Z,6.73
2018-06-21T00:15:06.684Z,7.90
2018-06-21T00:17:35.065Z,5.83
2018-06-21T00:20:03.435Z,5.70
2018-06-21T00:22:32.117Z,6.70
2018-06-21T00:25:00.536Z,8.23
2018-06-21T00:27:28.889Z,5.67
2018-06-21T00:29:57.373Z,6.30
2018-06-21T00:32:25.695Z,6.97
2018-06-21T00:34:54.484Z,6.30
2018-06-21T00:37:22.796Z,7.53
2018-06-21T00:39:51.148Z,7.13
2018-06-21T00:42:19.582Z,6.50
2018-06-21T00:44:48.253Z,6.90
2018-06-21T00:47:16.624Z,6.40
2018-06-21T00:49:45.616Z,6.50
2018-06-21T00:52:14.533Z,7.67
2018-06-21T00:54:42.966Z,6.60
2018-06-21T00:57:11.600Z,6.17
2018-06-21T00:59:40.005Z,7.13
2018-06-21T01:02:08.461Z,7.67
2018-06-21T01:04:36.760Z,6.90
2018-06-21T01:07:05.232Z,6.60
2018-06-21T01:09:33.735Z,7.50
2018-06-21T01:12:02.264Z,7.37
2018-06-21T01:14:30.896Z,6.77
2018-06-21T01:16:59.884Z,7.00
2018-06-21T01:19:28.589Z,6.83
2018-06-21T01:21:57.260Z,6.83
2018-06-21T01:24:26.036Z,6.67
2018-06-21T01:26:54.936Z,7.07
2018-06-21T01:29:23.639Z,6.93
2018-06-21T01:31:52.322Z,6.53
2018-06-21T01:34:21.037Z,6.23
2018-06-21T01:36:49.699Z,6.87
2018-06-21T01:39:18.660Z,6.63
2018-06-21T01:41:47.072Z,6.73
2018-06-21T01:44:16.082Z,6.93
2018-06-21T01:46:44.824Z,7.00
2018-06-21T01:49:13.592Z,7.03
2018-06-21T01:51:42.699Z,7.10
2018-06-21T01:54:11.209Z,6.57
2018-06-21T01:56:39.949Z,6.57
2018-06-21T01:59:08.831Z,6.80
2018-06-21T02:01:37.488Z,7.47
2018-06-21T02:04:06.468Z,6.30
2018-06-21T02:06:35.782Z,7.27
2018-06-21T02:09:06.501Z,6.70
2018-06-21T02:11:35.325Z,6.40
2018-06-21T02:14:04.131Z,6.50
2018-06-21T02:16:32.752Z,6.37
2018-06-21T02:19:01.365Z,6.60
2018-06-21T02:21:30.121Z,6.67
2018-06-21T02:23:59.029Z,8.97
2018-06-21T02:26:28.088Z,7.07
2018-06-21T02:28:56.700Z,7.07
2018-06-21T02:31:25.671Z,6.77
2018-06-21T02:33:54.218Z,6.67
2018-06-21T02:36:22.841Z,6.87
2018-06-21T02:38:51.767Z,6.67
2018-06-21T02:41:20.742Z,7.30
2018-06-21T02:43:49.127Z,5.93
2018-06-21T02:46:17.804Z,6.83
2018-06-21T02:48:46.908Z,6.33
2018-06-21T02:51:16.043Z,11.37
2018-06-21T02:53:44.885Z,6.50
2018-06-21T02:56:14.124Z,7.53
2018-06-21T02:58:42.895Z,7.07
2018-06-21T03:01:11.808Z,6.43
2018-06-21T03:03:40.761Z,6.93
2018-06-21T03:06:09.465Z,6.50
2018-06-21T03:08:38.212Z,6.23
2018-06-21T03:11:06.937Z,7.50
2018-06-21T03:13:35.533Z,6.37
2018-06-21T03:16:04.208Z,7.17
2018-06-21T03:18:33.084Z,6.67
2018-06-21T03:21:01.680Z,6.83
2018-06-21T03:23:30.813Z,6.83
2018-06-21T03:25:59.672Z,6.80
2018-06-21T03:28:28.303Z,6.67
2018-06-21T03:30:56.966Z,7.00
2018-06-21T03:33:25.982Z,7.10
2018-06-21T03:35:54.911Z,7.87
2018-06-21T03:38:23.631Z,7.10
2018-06-21T03:40:53.129Z,6.37
2018-06-21T03:43:21.964Z,7.30
2018-06-21T03:45:50.624Z,9.43
2018-06-21T03:48:19.400Z,7.00
2018-06-21T03:50:47.996Z,6.90
2018-06-21T03:53:16.652Z,6.80
2018-06-21T03:55:45.055Z,6.30
2018-06-21T03:58:14.024Z,6.90
2018-06-21T04:00:42.458Z,6.80
2018-06-21T04:03:11.742Z,6.53
2018-06-21T04:05:40.495Z,6.77
2018-06-21T04:08:09.900Z,6.73
2018-06-21T04:10:38.792Z,6.33
2018-06-21T04:19:52.153Z,7.60
2018-06-21T04:22:21.237Z,6.50
2018-06-21T04:24:49.636Z,6.07
2018-06-21T04:27:18.347Z,6.37
2018-06-21T04:29:47.693Z,6.80
2018-06-21T04:32:16.785Z,6.00
2018-06-21T04:34:45.340Z,6.40
2018-06-21T04:37:14.080Z,6.33
2018-06-21T04:39:42.876Z,6.77
2018-06-21T04:42:11.696Z,6.73
2018-06-21T04:44:40.740Z,6.00
2018-06-21T04:47:09.473Z,6.43
2018-06-21T04:49:38.360Z,6.60
2018-06-21T04:52:06.738Z,5.90
2018-06-21T04:54:35.489Z,7.17
2018-06-21T04:57:04.441Z,6.77
2018-06-21T04:59:33.406Z,6.30
2018-06-21T05:02:01.831Z,6.70
2018-06-21T05:04:30.772Z,6.27
2018-06-21T05:07:00.123Z,6.00
2018-06-21T05:09:29.066Z,6.27
2018-06-21T05:11:57.616Z,7.40
2018-06-21T05:14:26.504Z,6.10
2018-06-21T05:16:55.136Z,5.90
2018-06-21T05:19:23.872Z,6.20
2018-06-21T05:21:52.622Z,6.27
2018-06-21T05:24:21.784Z,6.87
2018-06-21T05:26:50.280Z,7.10
2018-06-21T05:29:18.992Z,5.90
2018-06-21T05:31:47.629Z,9.93
2018-06-21T05:34:16.256Z,6.23
2018-06-21T05:36:44.960Z,6.53
2018-06-21T05:39:13.624Z,7.87
2018-06-21T05:41:42.777Z,5.93
2018-06-21T05:44:11.340Z,5.67
2018-06-21T05:46:40.301Z,5.63
2018-06-21T05:49:09.000Z,6.43
2018-06-21T05:51:38.280Z,6.63
2018-06-21T05:54:06.972Z,5.73
2018-06-21T05:56:35.431Z,5.53
2018-06-21T05:59:04.376Z,5.53
2018-06-21T06:01:33.516Z,5.70
2018-06-21T06:04:02.696Z,6.37
2018-06-21T06:06:31.715Z,5.73
2018-06-21T06:09:00.369Z,6.10
2018-06-21T06:11:29.363Z,5.80
2018-06-21T06:13:58.027Z,5.30
2018-06-21T06:16:26.736Z,5.70
2018-06-21T06:18:55.456Z,6.83
2018-06-21T06:21:24.692Z,6.07
2018-06-21T06:23:53.493Z,5.53
2018-06-21T06:26:22.381Z,5.70
2018-06-21T06:28:51.176Z,6.20
2018-06-21T06:31:19.852Z,5.90
2018-06-21T06:33:48.789Z,5.40
2018-06-21T06:36:17.735Z,5.40
2018-06-21T06:38:46.688Z,5.87
2018-06-21T06:41:15.084Z,5.93
2018-06-21T06:43:43.747Z,6.73
2018-06-21T06:46:12.344Z,7.00
2018-06-21T06:48:41.245Z,5.50
2018-06-21T06:51:10.153Z,5.77
2018-06-21T06:53:38.592Z,5.37
2018-06-21T06:56:07.204Z,6.43
2018-06-21T06:58:35.963Z,7.17
2018-06-21T07:01:04.716Z,5.47
2018-06-21T07:03:33.636Z,5.67
2018-06-21T07:06:02.281Z,5.37
2018-06-21T07:08:31.321Z,5.10
2018-06-21T07:10:59.968Z,5.27
2018-06-21T07:13:28.637Z,5.23
2018-06-21T07:15:57.656Z,5.17
2018-06-21T07:18:26.477Z,5.33
2018-06-21T07:20:55.837Z,5.67
2018-06-21T07:23:24.612Z,5.03
2018-06-21T07:25:53.077Z,4.90
2018-06-21T07:28:21.807Z,5.10
2018-06-21T07:30:50.403Z,6.53
2018-06-21T07:33:19.352Z,4.93
2018-06-21T07:35:48.020Z,5.70
2018-06-21T07:38:16.523Z,5.17
2018-06-21T07:40:45.696Z,4.50
2018-06-21T07:43:14.245Z,6.20
2018-06-21T07:45:43.406Z,5.27
2018-06-21T07:48:12.144Z,5.63
2018-06-21T07:50:40.825Z,5.27
2018-06-21T07:53:09.724Z,6.77
2018-06-21T07:55:38.458Z,4.73
2018-06-21T07:58:06.916Z,5.27
2018-06-21T08:00:35.932Z,4.90
2018-06-21T08:03:04.621Z,4.47
2018-06-21T08:05:33.672Z,5.07
2018-06-21T08:08:02.347Z,7.63
2018-06-21T08:10:30.887Z,7.97
2018-06-21T08:12:59.378Z,5.07
2018-06-21T08:15:28.012Z,5.07
2018-06-21T08:17:56.829Z,5.87
2018-06-21T08:20:25.491Z,5.07
2018-06-21T08:22:54.332Z,5.10
2018-06-21T08:25:23.104Z,5.17
2018-06-21T08:27:52.173Z,5.57
2018-06-21T08:30:20.680Z,4.70
2018-06-21T08:32:49.161Z,5.13
2018-06-21T08:35:18.013Z,4.90
2018-06-21T08:37:46.496Z,5.70
2018-06-21T08:40:15.641Z,5.50
2018-06-21T08:42:44.756Z,4.80
2018-06-21T08:45:14.160Z,5.20
2018-06-21T08:47:42.996Z,7.10
2018-06-21T08:50:11.708Z,4.60
2018-06-21T08:52:40.112Z,4.20
2018-06-21T08:55:09.192Z,4.77
2018-06-21T08:57:38.100Z,4.77
2018-06-21T09:00:06.900Z,4.70
2018-06-21T09:02:36.070Z,5.37
2018-06-21T09:05:04.715Z,5.63
2018-06-21T09:07:33.540Z,5.07
2018-06-21T09:10:02.224Z,6.57
2018-06-21T09:12:38.076Z,7.57
2018-06-21T09:15:07.491Z,4.97
2018-06-21T09:17:36.248Z,4.33
2018-06-21T09:20:05.201Z,4.23
2018-06-21T09:22:34.170Z,4.37
2018-06-21T09:25:03.308Z,4.50
2018-06-21T09:27:32.170Z,5.07
2018-06-21T09:30:00.659Z,4.87
2018-06-21T09:32:30.412Z,6.10
2018-06-21T09:34:59.152Z,4.80
2018-06-21T09:37:33.244Z,5.73
2018-06-21T09:40:06.886Z,4.50
2018-06-21T09:42:40.677Z,4.23
2018-06-21T09:45:09.542Z,3.93
2018-06-21T09:47:43.858Z,4.07
2018-06-21T09:50:17.029Z,4.80
2018-06-21T09:52:46.079Z,4.57
2018-06-21T09:55:15.044Z,3.90
2018-06-21T09:57:43.767Z,4.77
2018-06-21T10:01:15.469Z,4.07
2018-06-21T10:03:44.268Z,6.40
2018-06-21T10:06:12.801Z,4.30
2018-06-21T10:08:41.452Z,4.53
2018-06-21T10:11:10.478Z,4.57
2018-06-21T10:13:39.466Z,4.77
2018-06-21T10:16:08.137Z,4.60
2018-06-21T10:18:36.855Z,4.57
2018-06-21T10:21:05.612Z,4.60
2018-06-21T10:23:34.289Z,4.50
2018-06-21T10:26:03.076Z,4.90
2018-06-21T10:28:32.201Z,4.47
2018-06-21T10:31:01.005Z,4.47
2018-06-21T10:33:30.057Z,4.37
2018-06-21T10:35:58.874Z,4.40
2018-06-21T10:38:27.845Z,4.50
2018-06-21T10:40:56.693Z,6.00
2018-06-21T10:43:25.371Z,4.67
2018-06-21T10:45:54.252Z,4.13
2018-06-21T10:48:23.244Z,5.70
2018-06-21T10:50:51.867Z,5.47
2018-06-21T10:53:20.560Z,6.33
2018-06-21T10:55:49.072Z,6.63
2018-06-21T10:58:17.691Z,4.13
2018-06-21T11:00:46.700Z,5.03
2018-06-21T11:03:15.379Z,5.07
2018-06-21T11:05:44.142Z,4.30
2018-06-21T11:08:12.741Z,5.50
2018-06-21T11:10:41.670Z,6.33
2018-06-21T11:13:10.630Z,4.63
2018-06-21T11:15:39.213Z,5.17
2018-06-21T11:18:08.018Z,6.63
2018-06-21T11:20:36.444Z,4.37
2018-06-21T11:23:04.841Z,4.03
2018-06-21T11:25:33.610Z,4.33
2018-06-21T11:28:02.242Z,4.73
2018-06-21T11:30:31.239Z,5.63
2018-06-21T11:33:00.226Z,4.10
2018-06-21T11:35:29.219Z,4.73
2018-06-21T11:37:58.251Z,4.90
2018-06-21T11:40:27.033Z,6.63
2018-06-21T11:42:55.975Z,4.20
2018-06-21T11:45:24.839Z,6.20
2018-06-21T11:47:53.277Z,4.83
2018-06-21T11:50:22.437Z,4.03
2018-06-21T11:52:50.976Z,4.27
2018-06-21T11:55:19.684Z,5.10
2018-06-21T11:57:48.630Z,4.40
2018-06-21T12:00:17.228Z,4.17
2018-06-21T12:02:45.961Z,4.87
2018-06-21T12:05:15.233Z,4.23
2018-06-21T12:07:43.639Z,4.00
2018-06-21T12:10:12.694Z,4.73
2018-06-21T12:12:41.649Z,4.43
2018-06-21T12:15:10.642Z,4.27
2018-06-21T12:17:39.553Z,4.13
2018-06-21T12:20:08.370Z,4.80
2018-06-21T12:22:37.571Z,4.10
2018-06-21T12:25:06.335Z,4.10
2018-06-21T12:27:35.001Z,3.60
2018-06-21T12:30:04.261Z,4.30
2018-06-21T12:32:33.271Z,4.80
2018-06-21T12:35:02.293Z,6.57
2018-06-21T12:37:30.980Z,4.70
2018-06-21T12:39:59.649Z,3.57
2018-06-21T12:42:28.319Z,4.83
2018-06-21T12:44:57.926Z,3.77
2018-06-21T12:47:26.647Z,3.87
2018-06-21T12:49:55.791Z,3.40
2018-06-21T12:52:24.461Z,4.93
2018-06-21T12:54:53.101Z,4.83
2018-06-21T12:57:22.170Z,2.97
2018-06-21T12:59:50.673Z,3.20
2018-06-21T13:02:19.347Z,3.70
2018-06-21T13:04:48.401Z,4.17
2018-06-21T13:07:17.131Z,3.23
2018-06-21T13:09:51.581Z,4.97
2018-06-21T13:12:31.915Z,3.03
2018-06-21T13:15:00.608Z,3.97
2018-06-21T13:17:30.209Z,4.00
2018-06-21T13:19:59.816Z,4.33
2018-06-21T13:22:28.585Z,3.20
2018-06-21T13:24:57.460Z,5.33
2018-06-21T13:27:25.899Z,3.10
2018-06-21T13:29:54.588Z,3.20
2018-06-21T13:32:23.840Z,3.77
2018-06-21T13:34:52.888Z,3.43
2018-06-21T13:37:21.581Z,3.43
2018-06-21T13:39:50.472Z,3.37
2018-06-21T13:42:18.988Z,3.60
2018-06-21T13:44:47.893Z,3.33
2018-06-21T13:47:16.972Z,6.47
2018-06-21T13:49:45.832Z,3.30
2018-06-21T13:52:14.920Z,3.17
2018-06-21T13:54:43.729Z,4.40
2018-06-21T13:57:12.296Z,5.30
2018-06-21T13:59:41.517Z,3.37
2018-06-21T14:02:10.228Z,6.13
2018-06-21T14:04:38.644Z,10.17
2018-06-21T14:07:07.446Z,9.73
2018-06-21T14:09:36.044Z,17.50
2018-06-21T14:12:04.708Z,22.50
2018-06-21T14:14:33.482Z,27.50
2018-06-21T14:17:02.182Z,25.27
2018-06-21T14:19:31.105Z,21.00
2018-06-21T14:22:00.083Z,22.90
2018-06-21T14:24:28.752Z,31.70
2018-06-21T14:26:57.427Z,23.47
2018-06-21T14:29:26.397Z,17.97
2018-06-21T14:31:54.816Z,8.60
2018-06-21T14:34:23.304Z,7.50
2018-06-21T14:36:52.083Z,15.03
2018-06-21T14:39:21.135Z,8.67
2018-06-21T14:41:49.858Z,9.97
2018-06-21T14:44:18.526Z,11.70
2018-06-21T14:46:46.903Z,10.67
2018-06-21T14:49:15.589Z,8.10
2018-06-21T14:51:44.340Z,8.73
2018-06-21T14:54:13.300Z,9.47
2018-06-21T14:56:42.130Z,9.93
2018-06-21T14:59:10.662Z,11.40
2018-06-21T15:01:39.350Z,9.57
2018-06-21T15:04:08.085Z,8.73
2018-06-21T15:06:36.870Z,7.83
2018-06-21T15:09:08.234Z,8.17
2018-06-21T15:11:36.928Z,6.77
2018-06-21T15:14:05.585Z,6.33
2018-06-21T15:16:34.556Z,8.93
2018-06-21T15:19:03.584Z,7.53
2018-06-21T15:21:31.999Z,6.40
2018-06-21T15:24:00.660Z,6.40
2018-06-21T15:26:29.314Z,6.50
2018-06-21T15:28:58.402Z,5.20
2018-06-21T15:31:26.980Z,7.03
2018-06-21T15:33:56.251Z,7.47
2018-06-21T15:36:24.631Z,7.00
2018-06-21T15:38:56.724Z,8.53
2018-06-21T15:41:25.413Z,10.93
2018-06-21T15:43:54.133Z,8.37
2018-06-21T15:46:23.096Z,7.53
2018-06-21T15:48:52.168Z,10.87
2018-06-21T15:51:20.801Z,9.70
2018-06-21T15:53:49.487Z,10.50
2018-06-21T15:56:18.252Z,10.23
2018-06-21T15:58:46.941Z,11.83
2018-06-21T16:01:16.103Z,9.43
2018-06-21T16:03:44.541Z,8.67
2018-06-21T16:06:13.670Z,9.10
2018-06-21T16:08:42.245Z,12.80
2018-06-21T16:11:11.193Z,11.87
2018-06-21T16:13:39.889Z,9.93
2018-06-21T16:16:08.705Z,11.70
2018-06-21T16:18:37.365Z,7.13
2018-06-21T16:21:05.960Z,8.97
2018-06-21T16:23:34.948Z,11.13
2018-06-21T16:26:03.616Z,7.27
2018-06-21T16:28:32.733Z,11.33
2018-06-21T16:31:01.666Z,4.73
2018-06-21T16:33:30.702Z,9.73
2018-06-21T16:35:59.576Z,8.80
2018-06-21T16:38:28.605Z,6.13
2018-06-21T16:40:57.309Z,7.57
2018-06-21T16:43:26.271Z,6.93
2018-06-21T16:45:55.159Z,6.10
2018-06-21T16:48:23.613Z,6.60
2018-06-21T16:50:52.141Z,5.83
2018-06-21T16:53:21.128Z,3.83
2018-06-21T16:55:49.725Z,7.00
2018-06-21T16:58:18.704Z,3.43
2018-06-21T17:00:47.392Z,5.00
2018-06-21T17:03:15.811Z,4.93
2018-06-21T17:05:44.446Z,3.23
2018-06-21T17:08:12.788Z,3.80
2018-06-21T17:10:41.246Z,4.93
2018-06-21T17:13:09.945Z,6.43
2018-06-21T17:15:38.551Z,2.10
2018-06-21T17:18:07.064Z,7.27
2018-06-21T17:20:35.672Z,4.63
2018-06-21T17:23:04.390Z,4.97
2018-06-21T17:25:32.709Z,4.40
2018-06-21T17:28:01.468Z,7.20
2018-06-21T17:30:30.079Z,6.20
2018-06-21T17:32:58.485Z,8.17
2018-06-21T17:35:27.149Z,3.77
2018-06-21T17:37:56.141Z,4.10
2018-06-21T17:40:25.161Z,3.60
2018-06-21T17:42:54.188Z,4.63
2018-06-21T17:45:23.422Z,3.60
2018-06-21T17:47:51.844Z,4.03
2018-06-21T17:50:20.512Z,4.83
2018-06-21T17:52:49.492Z,2.80
2018-06-21T17:55:19.179Z,3.30
2018-06-21T17:57:47.959Z,3.93
2018-06-21T18:00:16.364Z,7.17
2018-06-21T18:02:45.473Z,3.10
2018-06-21T18:05:13.784Z,3.77
2018-06-21T18:07:42.225Z,6.30
2018-06-21T18:10:11.229Z,11.30
2018-06-21T18:12:39.850Z,4.17
2018-06-21T18:15:08.291Z,5.07
2018-06-21T18:17:36.865Z,5.10
2018-06-21T18:20:09.372Z,4.57
2018-06-21T18:22:38.058Z,4.57
2018-06-21T18:25:06.473Z,2.33
2018-06-21T18:27:35.872Z,4.90
2018-06-21T18:30:04.529Z,1.97
2018-06-21T18:32:32.984Z,2.73
2018-06-21T18:35:02.366Z,2.30
2018-06-21T18:37:30.706Z,2.30
2018-06-21T18:39:59.057Z,4.90
2018-06-21T18:42:27.645Z,2.07
2018-06-21T18:44:56.864Z,3.13
2018-06-21T18:47:25.194Z,1.97
2018-06-21T18:49:53.589Z,2.80
2018-06-21T18:52:22.040Z,3.60
2018-06-21T18:54:50.942Z,2.47
2018-06-21T18:57:19.373Z,5.30
2018-06-21T18:59:48.076Z,5.03
2018-06-21T19:02:16.684Z,5.43
2018-06-21T19:04:45.288Z,4.53
2018-06-21T19:07:19.596Z,5.50
2018-06-21T19:09:53.300Z,4.77
2018-06-21T19:12:22.220Z,3.47
2018-06-21T19:14:50.628Z,4.37
2018-06-21T19:17:19.702Z,5.80
2018-06-21T19:19:48.585Z,4.13
2018-06-21T19:22:17.341Z,3.43
2018-06-21T19:24:46.328Z,2.53
2018-06-21T19:27:15.089Z,3.13
2018-06-21T19:29:43.737Z,3.80
2018-06-21T19:32:12.423Z,1.93
2018-06-21T19:34:41.109Z,2.03
2018-06-21T19:37:10.005Z,2.33
2018-06-21T19:39:38.381Z,2.20
2018-06-21T19:42:07.400Z,17.80
2018-06-21T19:44:36.316Z,4.47
2018-06-21T19:47:05.370Z,2.07
2018-06-21T19:49:33.830Z,3.37
2018-06-21T19:52:03.072Z,2.60
2018-06-21T19:54:31.745Z,4.17
2018-06-21T19:57:00.782Z,4.57
2018-06-21T19:59:29.195Z,8.00
2018-06-21T20:01:57.937Z,9.20
2018-06-21T20:04:26.764Z,3.23
2018-06-21T20:06:55.171Z,3.53
2018-06-21T20:09:24.029Z,5.77
2018-06-21T20:11:53.200Z,1.73
2018-06-21T20:14:21.849Z,4.00
2018-06-21T20:16:50.424Z,4.60
2018-06-21T20:19:19.730Z,2.93
2018-06-21T20:21:48.260Z,4.57
2018-06-21T20:24:16.940Z,3.57
2018-06-21T20:26:45.624Z,5.93
2018-06-21T20:29:20.703Z,2.20
2018-06-21T20:31:49.120Z,2.23
2018-06-21T20:34:17.809Z,3.33
2018-06-21T20:36:47.165Z,2.37
2018-06-21T20:39:15.790Z,2.93
2018-06-21T20:41:44.703Z,4.23
2018-06-21T20:44:13.707Z,2.77
2018-06-21T20:46:42.376Z,3.10
2018-06-21T20:49:11.029Z,2.43
2018-06-21T20:51:39.653Z,2.33
2018-06-21T20:54:08.480Z,2.00
2018-06-21T20:56:37.530Z,2.40
2018-06-21T20:59:06.156Z,2.97
2018-06-21T21:01:35.200Z,2.00
2018-06-21T21:04:04.016Z,4.33
2018-06-21T21:06:32.900Z,2.90
2018-06-21T21:09:01.994Z,2.73
2018-06-21T21:11:30.635Z,2.83
2018-06-21T21:13:59.709Z,2.93
2018-06-21T21:16:28.592Z,3.30
2018-06-21T21:18:57.596Z,2.43
2018-06-21T21:21:26.233Z,4.13
2018-06-21T21:23:55.063Z,3.27
2018-06-21T21:26:24.022Z,2.30
2018-06-21T21:28:53.309Z,3.03
2018-06-21T21:31:22.213Z,2.73
2018-06-21T21:33:51.617Z,3.20
2018-06-21T21:36:20.235Z,2.53
2018-06-21T21:38:48.664Z,2.63
2018-06-21T21:41:17.333Z,3.37
2018-06-21T21:43:46.254Z,3.13
2018-06-21T21:46:15.248Z,2.27
2018-06-21T21:48:44.215Z,2.53
2018-06-21T21:51:12.636Z,6.77
2018-06-21T21:53:41.441Z,2.90
2018-06-21T21:56:10.280Z,2.27
2018-06-21T21:58:38.704Z,3.53
2018-06-21T22:01:07.383Z,2.60
2018-06-21T22:03:36.057Z,2.50
2018-06-21T22:06:04.724Z,2.83
2018-06-21T22:08:33.908Z,3.33
2018-06-21T22:11:02.479Z,4.93
2018-06-21T22:13:31.111Z,2.57
2018-06-21T22:15:59.896Z,3.50
2018-06-21T22:18:29.080Z,2.33
2018-06-21T22:20:57.826Z,2.67
2018-06-21T22:23:26.579Z,3.37
2018-06-21T22:25:55.454Z,2.27
2018-06-21T22:28:24.128Z,3.90
2018-06-21T22:30:52.529Z,2.73
2018-06-21T22:33:21.544Z,2.87
2018-06-21T22:35:50.222Z,2.23
2018-06-21T22:38:18.933Z,2.73
2018-06-21T22:40:49.176Z,3.00
2018-06-21T22:43:18.100Z,2.10
2018-06-21T22:45:46.817Z,3.47
2018-06-21T22:48:16.123Z,2.37
2018-06-21T22:50:44.884Z,2.97
2018-06-21T22:53:13.523Z,2.83
2018-06-21T22:55:42.503Z,2.17
2018-06-21T22:58:11.412Z,3.20
2018-06-21T23:00:39.877Z,2.93
2018-06-21T23:03:08.832Z,3.63
2018-06-21T23:05:37.526Z,3.00
2018-06-21T23:08:06.520Z,3.40
2018-06-21T23:10:35.231Z,2.80
2018-06-21T23:13:03.892Z,3.10
2018-06-21T23:15:32.553Z,2.20
2018-06-21T23:18:01.408Z,2.20
2018-06-21T23:20:30.041Z,2.47
2018-06-21T23:22:58.646Z,3.33
2018-06-21T23:25:27.609Z,2.30
2018-06-21T23:27:56.179Z,2.27
2018-06-21T23:30:25.000Z,3.07
2018-06-21T23:32:53.753Z,2.17
2018-06-21T23:35:22.960Z,1.83
2018-06-21T23:37:51.722Z,2.27
2018-06-21T23:40:20.780Z,3.03
2018-06-21T23:42:49.912Z,2.13
2018-06-21T23:45:18.945Z,4.47
2018-06-21T23:47:47.970Z,3.03
2018-06-21T23:50:17.022Z,2.27
2018-06-21T23:52:45.952Z,1.63
2018-06-21T23:55:14.604Z,3.93
2018-06-21T23:57:43.332Z,2.23
